Time;durP1;ratioP1;P1;durP2;ratioP2;P2;SDS_P1;SDS_P2;PMS_P1;PMS_P2;Temp;Humidity;BMP_temperature;BMP_pressure;BME280_temperature;BME280_humidity;BME280_pressure;Samples;Min_cycle;Max_cycle;Signal;HPM_P1;HPM_P2
2023/10/15 00:00:18;;;;;;;5.32;1.45;;;;;;;;;;5057509;28;20049;-81
2023/10/15 00:02:46;;;;;;;8.10;2.00;;;;;;;;;;5057802;28;20053;-81
2023/10/15 00:05:20;;;;;;;10.35;2.65;;;;;;;;;;5039470;28;20462;-81
2023/10/15 00:07:48;;;;;;;5.22;2.35;;;;;;;;;;5057202;28;20499;-81
2023/10/15 00:10:19;;;;;;;6.20;2.63;;;;;;;;;;5039732;28;20128;-81
2023/10/15 00:12:47;;;;;;;8.15;2.20;;;;;;;;;;5057138;28;20049;-81
2023/10/15 00:15:18;;;;;;;5.55;2.45;;;;;;;;;;5039156;28;20533;-80
2023/10/15 00:17:46;;;;;;;5.88;1.88;;;;;;;;;;5057268;28;20055;-81
2023/10/15 00:20:17;;;;;;;3.92;1.83;;;;;;;;;;5057072;28;20499;-81
2023/10/15 00:22:45;;;;;;;7.50;2.03;;;;;;;;;;5039423;28;20049;-80
2023/10/15 00:25:14;;;;;;;6.10;2.00;;;;;;;;;;5039472;28;20049;-81
2023/10/15 00:27:42;;;;;;;4.18;1.70;;;;;;;;;;5038163;28;20048;-81
2023/10/15 00:30:12;;;;;;;9.52;2.45;;;;;;;;;;5057091;28;20049;-80
2023/10/15 00:32:43;;;;;;;4.57;1.42;;;;;;;;;;5038914;28;20045;-81
2023/10/15 00:35:11;;;;;;;7.45;2.35;;;;;;;;;;5056868;28;20400;-81
2023/10/15 00:37:50;;;;;;;6.55;2.10;;;;;;;;;;5038821;28;20094;-79
2023/10/15 00:40:20;;;;;;;4.88;1.65;;;;;;;;;;5039102;28;20049;-81
2023/10/15 00:42:47;;;;;;;4.70;1.63;;;;;;;;;;5039382;28;20045;-81
2023/10/15 00:45:15;;;;;;;3.72;1.63;;;;;;;;;;5039295;28;20045;-80
2023/10/15 00:47:43;;;;;;;4.50;1.73;;;;;;;;;;5039018;28;20056;-81
2023/10/15 00:50:10;;;;;;;10.07;2.35;;;;;;;;;;5039291;28;20404;-80
2023/10/15 00:52:42;;;;;;;9.48;2.63;;;;;;;;;;5056835;28;20045;-80
2023/10/15 00:55:22;;;;;;;4.40;1.80;;;;;;;;;;5056676;28;20051;-80
2023/10/15 00:57:56;;;;;;;7.80;2.05;;;;;;;;;;5038976;28;20068;-81
2023/10/15 01:03:09;;;;;;;11.77;2.00;;;;;;;;;;5056988;28;20063;-80
2023/10/15 01:05:46;;;;;;;6.47;2.20;;;;;;;;;;5038233;28;20045;-81
2023/10/15 01:08:16;;;;;;;7.90;1.75;;;;;;;;;;5039450;28;20454;-80
2023/10/15 01:10:44;;;;;;;6.15;1.98;;;;;;;;;;5056571;28;20047;-81
2023/10/15 01:13:17;;;;;;;7.53;1.70;;;;;;;;;;5039016;28;20541;-81
2023/10/15 01:15:48;;;;;;;10.23;1.80;;;;;;;;;;5056776;28;20519;-80
2023/10/15 01:18:15;;;;;;;5.53;1.40;;;;;;;;;;5039293;28;20107;-80
2023/10/15 01:20:43;;;;;;;8.15;1.63;;;;;;;;;;5056585;28;20518;-81
2023/10/15 01:23:28;;;;;;;6.40;1.75;;;;;;;;;;5056392;28;20048;-81
2023/10/15 01:26:00;;;;;;;8.35;2.10;;;;;;;;;;5056793;28;20049;-81
2023/10/15 01:28:36;;;;;;;3.35;2.00;;;;;;;;;;5038799;28;20051;-81
2023/10/15 01:31:07;;;;;;;6.97;2.05;;;;;;;;;;5056514;28;20045;-81
2023/10/15 01:33:46;;;;;;;4.93;2.17;;;;;;;;;;5056810;28;20045;-81
2023/10/15 01:36:26;;;;;;;6.53;1.80;;;;;;;;;;5039015;28;20052;-81
2023/10/15 01:38:58;;;;;;;4.43;1.55;;;;;;;;;;5039071;28;20045;-80
2023/10/15 01:41:25;;;;;;;4.88;1.70;;;;;;;;;;5057462;28;20128;-81
2023/10/15 01:43:53;;;;;;;6.95;1.90;;;;;;;;;;5057467;28;20083;-80
2023/10/15 01:49:17;;;;;;;9.27;2.05;;;;;;;;;;5020300;28;20051;-81
2023/10/15 01:51:45;;;;;;;5.25;2.10;;;;;;;;;;5057282;28;20511;-81
2023/10/15 01:54:12;;;;;;;4.70;1.42;;;;;;;;;;5057632;28;20095;-81
2023/10/15 01:56:45;;;;;;;8.27;1.95;;;;;;;;;;5039755;28;20057;-81
2023/10/15 01:59:13;;;;;;;9.88;1.88;;;;;;;;;;5039773;28;20072;-81
2023/10/15 02:01:41;;;;;;;5.13;1.65;;;;;;;;;;5057268;28;20091;-81
2023/10/15 02:04:26;;;;;;;5.93;1.90;;;;;;;;;;5057354;28;20076;-81
2023/10/15 02:06:55;;;;;;;6.20;1.80;;;;;;;;;;5039593;28;20514;-81
2023/10/15 02:09:22;;;;;;;12.55;2.28;;;;;;;;;;5057284;28;20071;-81
2023/10/15 02:11:54;;;;;;;9.88;2.00;;;;;;;;;;5040323;28;20052;-81
2023/10/15 02:14:23;;;;;;;8.68;2.55;;;;;;;;;;5070197;23;20584;-78
2023/10/15 02:16:51;;;;;;;7.57;1.65;;;;;;;;;;5057868;28;20060;-77
2023/10/15 02:22:02;;;;;;;5.93;1.98;;;;;;;;;;5074474;28;20056;-78
2023/10/15 02:24:34;;;;;;;10.02;1.80;;;;;;;;;;5048498;28;20053;-77
2023/10/15 02:27:09;;;;;;;8.35;2.10;;;;;;;;;;5054818;28;20057;-78
2023/10/15 02:29:36;;;;;;;7.15;1.70;;;;;;;;;;5037717;28;20111;-77
2023/10/15 02:32:28;;;;;;;4.80;2.20;;;;;;;;;;5055433;28;20044;-78
2023/10/15 02:34:57;;;;;;;6.18;1.73;;;;;;;;;;5042985;28;20129;-78
2023/10/15 02:37:27;;;;;;;7.13;2.83;;;;;;;;;;5053296;28;20117;-78
2023/10/15 02:39:56;;;;;;;5.70;2.10;;;;;;;;;;5051045;28;20060;-78
2023/10/15 02:42:36;;;;;;;4.82;1.60;;;;;;;;;;5067684;28;20155;-78
2023/10/15 02:45:06;;;;;;;6.20;1.75;;;;;;;;;;5041040;28;20052;-78
2023/10/15 02:47:49;;;;;;;6.72;2.30;;;;;;;;;;5049211;28;20044;-77
2023/10/15 02:50:18;;;;;;;13.38;2.13;;;;;;;;;;5055510;28;20053;-78
2023/10/15 02:52:46;;;;;;;8.68;2.33;;;;;;;;;;5037193;28;20044;-77
2023/10/15 02:55:26;;;;;;;5.18;2.20;;;;;;;;;;5037054;28;20086;-77
2023/10/15 02:58:00;;;;;;;11.35;2.20;;;;;;;;;;5038787;28;20056;-78
2023/10/15 03:00:28;;;;;;;8.57;2.17;;;;;;;;;;5055135;28;20049;-77
2023/10/15 03:02:56;;;;;;;5.45;1.80;;;;;;;;;;5046072;28;20053;-77
2023/10/15 03:05:30;;;;;;;5.63;2.15;;;;;;;;;;5036366;28;20064;-77
2023/10/15 03:08:00;;;;;;;11.20;2.40;;;;;;;;;;5036592;28;20045;-78
2023/10/15 03:13:15;;;;;;;4.78;2.08;;;;;;;;;;5045526;28;20045;-77
2023/10/15 03:15:52;;;;;;;9.77;1.92;;;;;;;;;;5028624;28;20565;-77
2023/10/15 03:18:23;;;;;;;8.57;2.20;;;;;;;;;;5054836;28;20048;-77
2023/10/15 03:21:00;;;;;;;8.73;2.47;;;;;;;;;;5054610;28;20075;-77
2023/10/15 03:23:27;;;;;;;6.13;1.77;;;;;;;;;;5037535;28;20083;-78
2023/10/15 03:25:57;;;;;;;12.60;2.67;;;;;;;;;;5054506;28;20087;-77
2023/10/15 03:28:25;;;;;;;8.68;2.78;;;;;;;;;;5054161;28;20048;-78
2023/10/15 03:30:54;;;;;;;8.68;1.80;;;;;;;;;;5036556;28;20300;-79
2023/10/15 03:33:30;;;;;;;6.88;1.75;;;;;;;;;;5054702;28;20476;-78
2023/10/15 03:36:00;;;;;;;5.85;2.08;;;;;;;;;;5032087;28;20056;-78
2023/10/15 03:38:33;;;;;;;5.53;1.77;;;;;;;;;;5036868;28;20422;-78
2023/10/15 03:41:11;;;;;;;7.00;2.40;;;;;;;;;;5036580;28;20049;-78
2023/10/15 03:43:39;;;;;;;7.32;2.22;;;;;;;;;;5036368;28;20131;-78
2023/10/15 03:46:19;;;;;;;6.95;1.73;;;;;;;;;;5036191;28;20460;-78
2023/10/15 03:48:50;;;;;;;7.47;2.30;;;;;;;;;;5036227;28;20052;-78
2023/10/15 03:51:21;;;;;;;8.55;2.25;;;;;;;;;;5035625;28;20511;-77
2023/10/15 03:53:51;;;;;;;4.30;1.90;;;;;;;;;;5028698;28;20104;-78
2023/10/15 03:56:19;;;;;;;8.73;2.70;;;;;;;;;;5035896;28;20045;-78
2023/10/15 03:58:46;;;;;;;6.60;2.03;;;;;;;;;;5046314;28;20056;-78
2023/10/15 04:01:16;;;;;;;6.55;1.77;;;;;;;;;;5038743;28;20045;-78
2023/10/15 04:03:47;;;;;;;8.55;2.10;;;;;;;;;;5040870;28;20416;-78
2023/10/15 04:06:18;;;;;;;5.05;2.00;;;;;;;;;;5040639;28;20113;-78
2023/10/15 04:11:30;;;;;;;9.40;2.25;;;;;;;;;;5058360;28;20045;-77
2023/10/15 04:14:04;;;;;;;11.55;1.98;;;;;;;;;;5057703;28;20053;-78
2023/10/15 04:16:31;;;;;;;;;;;;;;;;;;5058362;28;20087;-78
2023/10/15 04:19:00;;;;;;;9.00;1.90;;;;;;;;;;5039822;28;19924;-78
2023/10/15 04:21:27;;;;;;;11.32;3.20;;;;;;;;;;5039422;28;20052;-78
2023/10/15 04:23:56;;;;;;;6.28;3.20;;;;;;;;;;5039906;28;20111;-78
2023/10/15 04:26:28;;;;;;;8.15;2.85;;;;;;;;;;5030417;28;20053;-78
2023/10/15 04:28:56;;;;;;;3.38;2.53;;;;;;;;;;5037522;28;20389;-78
2023/10/15 04:31:24;;;;;;;12.07;2.72;;;;;;;;;;5037740;28;20041;-78
2023/10/15 04:33:53;;;;;;;7.55;2.30;;;;;;;;;;5032930;28;20077;-78
2023/10/15 04:36:20;;;;;;;6.53;2.53;;;;;;;;;;5034351;28;20053;-77
2023/10/15 04:38:48;;;;;;;5.72;2.30;;;;;;;;;;5031567;28;20049;-78
2023/10/15 04:41:24;;;;;;;6.95;2.33;;;;;;;;;;5038608;28;20049;-78
2023/10/15 04:43:51;;;;;;;6.80;2.10;;;;;;;;;;5038460;28;20049;-78
2023/10/15 04:46:19;;;;;;;7.45;2.92;;;;;;;;;;5030383;28;20401;-78
2023/10/15 04:48:47;;;;;;;3.20;1.80;;;;;;;;;;5056110;28;20055;-78
2023/10/15 04:51:14;;;;;;;12.15;3.53;;;;;;;;;;5039509;28;20067;-78
2023/10/15 04:53:44;;;;;;;15.95;3.42;;;;;;;;;;5038113;28;20426;-78
2023/10/15 04:56:12;;;;;;;10.23;3.38;;;;;;;;;;5038630;28;20124;-77
2023/10/15 04:58:39;;;;;;;9.50;3.60;;;;;;;;;;5039458;28;20049;-78
2023/10/15 05:01:07;;;;;;;8.45;3.83;;;;;;;;;;5038615;28;20049;-78
2023/10/15 05:03:38;;;;;;;10.57;3.47;;;;;;;;;;5055987;28;20080;-78
2023/10/15 05:06:10;;;;;;;10.80;3.50;;;;;;;;;;5056086;28;20049;-77
2023/10/15 05:08:40;;;;;;;4.72;3.22;;;;;;;;;;5035932;28;20099;-78
2023/10/15 05:11:08;;;;;;;6.38;2.20;;;;;;;;;;5051973;28;20418;-78
2023/10/15 05:13:35;;;;;;;5.80;2.60;;;;;;;;;;5030113;28;20676;-78
2023/10/15 05:16:04;;;;;;;7.80;2.45;;;;;;;;;;5039245;28;20061;-78
2023/10/15 05:18:32;;;;;;;9.48;3.72;;;;;;;;;;5058844;28;20114;-79
2023/10/15 05:21:02;;;;;;;10.93;2.65;;;;;;;;;;5038425;28;20053;-77
2023/10/15 05:23:30;;;;;;;8.23;2.85;;;;;;;;;;5038468;28;20045;-78
2023/10/15 05:25:57;;;;;;;7.30;3.05;;;;;;;;;;5040467;28;20083;-79
2023/10/15 05:28:26;;;;;;;15.30;7.63;;;;;;;;;;5056423;28;20161;-78
2023/10/15 05:30:54;;;;;;;10.07;4.60;;;;;;;;;;5056336;28;20049;-79
2023/10/15 05:33:22;;;;;;;9.88;5.15;;;;;;;;;;5030435;28;20116;-79
2023/10/15 05:35:49;;;;;;;13.27;5.25;;;;;;;;;;5038035;28;20053;-79
2023/10/15 05:38:16;;;;;;;9.65;4.50;;;;;;;;;;5055626;28;20060;-79
2023/10/15 05:40:45;;;;;;;7.75;3.15;;;;;;;;;;5038453;28;20489;-78
2023/10/15 05:43:12;;;;;;;9.68;3.80;;;;;;;;;;5038831;28;20060;-79
2023/10/15 05:45:40;;;;;;;6.97;3.75;;;;;;;;;;5038839;28;20048;-79
2023/10/15 05:48:07;;;;;;;9.90;4.32;;;;;;;;;;5048783;28;20123;-79
2023/10/15 05:50:34;;;;;;;13.95;4.07;;;;;;;;;;5039089;28;20491;-78
2023/10/15 05:53:02;;;;;;;7.55;3.22;;;;;;;;;;5030923;28;20131;-79
2023/10/15 05:55:32;;;;;;;8.90;3.50;;;;;;;;;;5055708;28;20495;-79
2023/10/15 05:57:59;;;;;;;4.72;3.20;;;;;;;;;;5038235;28;20081;-79
2023/10/15 06:00:27;;;;;;;6.25;3.13;;;;;;;;;;5056796;28;20099;-78
2023/10/15 06:02:54;;;;;;;10.23;2.78;;;;;;;;;;5039013;28;20195;-79
2023/10/15 06:05:23;;;;;;;6.97;3.40;;;;;;;;;;5056073;28;20562;-79
2023/10/15 06:07:51;;;;;;;13.48;3.97;;;;;;;;;;5043087;28;20480;-78
2023/10/15 06:10:18;;;;;;;9.93;4.10;;;;;;;;;;5052990;28;20106;-78
2023/10/15 06:12:47;;;;;;;14.75;4.18;;;;;;;;;;5030088;28;20045;-79
2023/10/15 06:15:15;;;;;;;8.60;4.05;;;;;;;;;;5055785;28;20053;-79
2023/10/15 06:17:46;;;;;;;10.45;4.38;;;;;;;;;;5038969;28;20099;-79
2023/10/15 06:20:15;;;;;;;8.18;4.15;;;;;;;;;;5055159;28;20049;-78
2023/10/15 06:22:43;;;;;;;5.97;3.78;;;;;;;;;;5037596;28;20049;-78
2023/10/15 06:25:13;;;;;;;16.70;4.07;;;;;;;;;;5054473;28;20048;-79
2023/10/15 06:27:41;;;;;;;11.48;3.97;;;;;;;;;;5055542;28;20127;-79
2023/10/15 06:30:14;;;;;;;12.73;3.75;;;;;;;;;;5037809;28;20053;-78
2023/10/15 06:32:43;;;;;;;18.00;4.18;;;;;;;;;;5037999;28;20143;-79
2023/10/15 06:35:18;;;;;;;11.38;3.47;;;;;;;;;;5037759;28;20049;-78
2023/10/15 06:37:49;;;;;;;8.43;3.70;;;;;;;;;;5019526;28;20075;-79
2023/10/15 06:40:16;;;;;;;10.85;3.38;;;;;;;;;;5034171;28;20053;-79
2023/10/15 06:42:51;;;;;;;7.85;3.78;;;;;;;;;;5032105;28;20519;-79
2023/10/15 06:45:19;;;;;;;13.05;3.80;;;;;;;;;;5029597;28;20056;-78
2023/10/15 06:47:47;;;;;;;11.63;3.53;;;;;;;;;;5055200;28;20580;-79
2023/10/15 06:50:15;;;;;;;11.80;3.55;;;;;;;;;;5029990;28;20045;-79
2023/10/15 06:52:43;;;;;;;14.13;3.42;;;;;;;;;;5055425;28;20045;-79
2023/10/15 06:55:12;;;;;;;9.85;3.72;;;;;;;;;;5055938;28;20053;-79
2023/10/15 06:57:39;;;;;;;9.45;4.10;;;;;;;;;;5029366;28;20102;-78
2023/10/15 07:00:10;;;;;;;12.55;3.72;;;;;;;;;;5055493;28;20048;-78
2023/10/15 07:02:37;;;;;;;12.60;4.13;;;;;;;;;;5037580;28;20057;-79
2023/10/15 07:05:05;;;;;;;12.40;4.40;;;;;;;;;;5037924;28;20049;-78
2023/10/15 07:07:33;;;;;;;16.02;5.22;;;;;;;;;;5055157;28;20045;-78
2023/10/15 07:10:04;;;;;;;11.90;4.05;;;;;;;;;;5037357;28;20056;-78
2023/10/15 07:12:34;;;;;;;17.33;4.85;;;;;;;;;;5053894;28;20087;-79
2023/10/15 07:15:05;;;;;;;17.95;4.68;;;;;;;;;;5036746;28;20103;-78
2023/10/15 07:17:32;;;;;;;15.98;4.25;;;;;;;;;;5029139;28;20052;-78
2023/10/15 07:19:59;;;;;;;20.30;4.57;;;;;;;;;;5037818;28;20045;-78
2023/10/15 07:22:27;;;;;;;14.10;4.82;;;;;;;;;;5037880;28;20488;-79
2023/10/15 07:24:54;;;;;;;15.02;4.95;;;;;;;;;;5055161;28;20072;-79
2023/10/15 07:27:21;;;;;;;15.90;5.05;;;;;;;;;;5037921;28;20466;-79
2023/10/15 07:29:49;;;;;;;18.55;5.15;;;;;;;;;;5037684;28;20048;-79
2023/10/15 07:32:16;;;;;;;21.98;7.00;;;;;;;;;;5037878;28;20041;-80
2023/10/15 07:34:43;;;;;;;19.70;6.53;;;;;;;;;;5034447;28;20045;-79
2023/10/15 07:37:11;;;;;;;28.75;6.57;;;;;;;;;;5037109;28;20056;-78
2023/10/15 07:39:38;;;;;;;18.80;5.88;;;;;;;;;;5039303;28;20052;-79
2023/10/15 07:42:06;;;;;;;24.48;5.40;;;;;;;;;;5055752;28;20072;-79
2023/10/15 07:44:34;;;;;;;21.88;4.47;;;;;;;;;;5059708;28;20499;-79
2023/10/15 07:47:02;;;;;;;22.52;3.90;;;;;;;;;;5060244;28;20064;-79
2023/10/15 07:49:31;;;;;;;13.77;3.63;;;;;;;;;;5060616;28;20550;-79
2023/10/15 07:51:59;;;;;;;26.80;3.78;;;;;;;;;;5041293;28;20500;-79
2023/10/15 07:54:26;;;;;;;21.73;4.38;;;;;;;;;;5038726;28;20083;-79
2023/10/15 07:56:54;;;;;;;18.23;4.10;;;;;;;;;;5034153;28;20102;-79
2023/10/15 07:59:21;;;;;;;11.50;2.38;;;;;;;;;;5059627;28;20053;-79
2023/10/15 08:01:50;;;;;;;7.68;1.80;;;;;;;;;;5042292;28;20115;-79
2023/10/15 08:04:17;;;;;;;5.65;1.50;;;;;;;;;;5059023;28;20053;-79
2023/10/15 08:06:46;;;;;;;7.20;1.55;;;;;;;;;;5041355;28;20060;-79
2023/10/15 08:09:14;;;;;;;5.78;1.92;;;;;;;;;;5033194;28;20461;-79
2023/10/15 08:11:41;;;;;;;7.95;1.67;;;;;;;;;;5041832;28;20049;-79
2023/10/15 08:14:09;;;;;;;10.40;1.75;;;;;;;;;;5051000;28;20503;-80
2023/10/15 08:16:37;;;;;;;11.77;1.98;;;;;;;;;;5061159;28;20083;-80
2023/10/15 08:19:05;;;;;;;6.28;1.30;;;;;;;;;;5061223;28;20124;-79
2023/10/15 08:21:32;;;;;;;7.78;1.40;;;;;;;;;;5061224;28;20470;-79
2023/10/15 08:23:59;;;;;;;5.18;1.25;;;;;;;;;;5042021;28;20503;-79
2023/10/15 08:26:26;;;;;;;4.70;1.38;;;;;;;;;;5053047;28;20053;-79
2023/10/15 08:28:54;;;;;;;9.80;1.80;;;;;;;;;;5043029;28;20496;-80
2023/10/15 08:31:21;;;;;;;5.68;1.40;;;;;;;;;;5052225;28;20077;-80
2023/10/15 08:33:48;;;;;;;5.63;1.27;;;;;;;;;;5053065;28;20098;-78
2023/10/15 08:36:17;;;;;;;4.45;1.08;;;;;;;;;;5042495;28;20048;-77
2023/10/15 08:38:44;;;;;;;6.13;1.35;;;;;;;;;;5034721;28;20041;-78
2023/10/15 08:41:12;;;;;;;6.07;1.38;;;;;;;;;;5041675;28;20049;-77
2023/10/15 08:43:40;;;;;;;2.53;1.27;;;;;;;;;;5040025;28;20045;-76
2023/10/15 08:46:09;;;;;;;5.85;1.30;;;;;;;;;;5042501;28;20109;-77
2023/10/15 08:48:41;;;;;;;3.92;1.10;;;;;;;;;;5030937;28;20050;-77
2023/10/15 08:51:09;;;;;;;4.65;1.30;;;;;;;;;;5039333;28;20045;-78
2023/10/15 08:53:37;;;;;;;5.57;1.30;;;;;;;;;;5045414;28;20243;-79
2023/10/15 08:56:05;;;;;;;5.05;1.35;;;;;;;;;;5045166;28;20166;-78
2023/10/15 08:58:33;;;;;;;7.30;1.48;;;;;;;;;;5062035;28;20049;-77
2023/10/15 09:01:01;;;;;;;5.15;1.42;;;;;;;;;;5043395;28;20083;-77
2023/10/15 09:03:29;;;;;;;10.25;2.42;;;;;;;;;;5061194;28;20053;-77
2023/10/15 09:05:57;;;;;;;5.40;1.42;;;;;;;;;;5040020;28;20507;-78
2023/10/15 09:08:28;;;;;;;6.45;1.40;;;;;;;;;;5041080;28;20067;-77
2023/10/15 09:10:55;;;;;;;2.53;1.10;;;;;;;;;;5036593;28;20491;-77
2023/10/15 09:13:25;;;;;;;4.43;1.48;;;;;;;;;;5045485;28;20522;-80
2023/10/15 09:15:55;;;;;;;5.38;1.48;;;;;;;;;;5045719;28;20046;-80
2023/10/15 09:18:25;;;;;;;3.60;1.00;;;;;;;;;;5061266;28;20049;-80
2023/10/15 09:20:54;;;;;;;4.45;1.38;;;;;;;;;;5043901;28;20099;-80
2023/10/15 09:23:22;;;;;;;6.53;1.50;;;;;;;;;;5042423;28;20084;-80
2023/10/15 09:25:53;;;;;;;6.45;3.00;;;;;;;;;;5041240;28;20055;-80
2023/10/15 09:28:22;;;;;;;9.45;4.05;;;;;;;;;;5034109;28;20056;-80
2023/10/15 09:30:51;;;;;;;7.03;1.73;;;;;;;;;;5061014;28;20051;-80
2023/10/15 09:33:27;;;;;;;5.57;1.30;;;;;;;;;;5040215;28;20120;-79
2023/10/15 09:35:54;;;;;;;3.65;1.20;;;;;;;;;;5034717;28;20049;-80
2023/10/15 09:38:21;;;;;;;5.93;1.35;;;;;;;;;;5040645;28;20098;-79
2023/10/15 09:40:49;;;;;;;6.40;1.20;;;;;;;;;;5052443;28;20048;-79
2023/10/15 09:43:17;;;;;;;5.50;1.13;;;;;;;;;;5038554;28;20059;-79
2023/10/15 09:45:44;;;;;;;4.68;1.10;;;;;;;;;;5053762;28;20111;-79
2023/10/15 09:48:11;;;;;;;2.47;0.90;;;;;;;;;;5036138;28;20400;-79
2023/10/15 09:50:41;;;;;;;5.90;1.27;;;;;;;;;;5035991;28;20481;-80
2023/10/15 09:53:12;;;;;;;6.13;1.25;;;;;;;;;;5036087;28;20049;-78
2023/10/15 09:55:41;;;;;;;5.00;1.33;;;;;;;;;;5053665;28;20135;-79
2023/10/15 09:58:10;;;;;;;5.10;1.00;;;;;;;;;;5035696;28;20465;-79
2023/10/15 10:00:46;;;;;;;4.35;1.33;;;;;;;;;;5027464;28;20055;-79
2023/10/15 10:03:26;;;;;;;2.10;1.00;;;;;;;;;;5035667;28;20044;-79
2023/10/15 10:06:09;;;;;;;2.72;1.10;;;;;;;;;;5053347;28;20084;-78
2023/10/15 10:08:39;;;;;;;3.28;0.80;;;;;;;;;;5050323;28;20080;-77
2023/10/15 10:11:19;;;;;;;4.65;1.33;;;;;;;;;;5030849;28;20487;-77
2023/10/15 10:14:07;;;;;;;4.30;1.05;;;;;;;;;;5053021;28;20454;-78
2023/10/15 10:16:35;;;;;;;4.85;1.38;;;;;;;;;;5035658;28;20095;-79
2023/10/15 10:19:02;;;;;;;4.35;1.13;;;;;;;;;;5035869;28;20072;-80
2023/10/15 10:21:31;;;;;;;2.95;1.45;;;;;;;;;;5053011;28;20052;-80
2023/10/15 10:23:59;;;;;;;1.88;0.90;;;;;;;;;;5035235;28;20053;-80
2023/10/15 10:26:32;;;;;;;4.05;1.02;;;;;;;;;;5044781;28;20076;-79
2023/10/15 10:29:01;;;;;;;4.15;1.35;;;;;;;;;;5052966;28;20053;-78
2023/10/15 10:31:30;;;;;;;3.95;1.02;;;;;;;;;;5052514;28;20075;-77
2023/10/15 10:34:01;;;;;;;3.58;1.20;;;;;;;;;;5035292;28;20079;-78
2023/10/15 10:36:30;;;;;;;2.80;1.35;;;;;;;;;;5035124;28;20048;-79
2023/10/15 10:39:07;;;;;;;4.32;1.15;;;;;;;;;;5035122;28;20477;-77
2023/10/15 10:41:37;;;;;;;4.45;1.38;;;;;;;;;;5035185;28;20060;-77
2023/10/15 10:44:05;;;;;;;4.40;1.13;;;;;;;;;;5052662;28;20415;-76
2023/10/15 10:46:52;;;;;;;3.60;1.25;;;;;;;;;;5052410;28;20056;-77
2023/10/15 10:49:30;;;;;;;3.83;1.08;;;;;;;;;;5034902;28;20041;-77
2023/10/15 10:52:04;;;;;;;2.75;1.35;;;;;;;;;;5052738;28;20131;-78
2023/10/15 10:54:32;;;;;;;3.53;1.13;;;;;;;;;;5052454;28;20073;-77
2023/10/15 10:57:00;;;;;;;2.45;1.23;;;;;;;;;;5035022;28;20045;-77
2023/10/15 10:59:30;;;;;;;4.65;1.30;;;;;;;;;;5052327;28;20499;-80
2023/10/15 11:01:57;;;;;;;2.30;1.00;;;;;;;;;;5052913;28;20114;-78
2023/10/15 11:04:25;;;;;;;2.88;1.10;;;;;;;;;;5034787;28;20126;-79
2023/10/15 11:06:52;;;;;;;1.88;1.33;;;;;;;;;;5052210;28;20060;-79
2023/10/15 11:09:20;;;;;;;2.40;1.50;;;;;;;;;;5052319;28;20055;-78
2023/10/15 11:11:48;;;;;;;2.00;1.63;;;;;;;;;;5057547;28;20106;-79
2023/10/15 11:14:16;;;;;;;3.88;1.45;;;;;;;;;;5033131;28;20503;-79
2023/10/15 11:16:43;;;;;;;8.65;3.33;;;;;;;;;;5041268;28;20045;-79
2023/10/15 11:19:14;;;;;;;5.20;1.38;;;;;;;;;;5041538;28;20049;-80
2023/10/15 11:21:42;;;;;;;2.78;1.30;;;;;;;;;;5058744;28;20049;-79
2023/10/15 11:24:10;;;;;;;4.63;1.45;;;;;;;;;;5058762;28;20048;-78
2023/10/15 11:26:41;;;;;;;2.65;1.08;;;;;;;;;;5041200;28;20056;-80
2023/10/15 11:29:13;;;;;;;1.50;1.20;;;;;;;;;;5058843;28;20051;-78
2023/10/15 11:31:44;;;;;;;1.55;1.10;;;;;;;;;;5059220;28;20099;-79
2023/10/15 11:34:22;;;;;;;2.28;1.20;;;;;;;;;;5041058;28;20056;-78
2023/10/15 11:36:51;;;;;;;3.90;1.38;;;;;;;;;;5050542;28;20049;-78
2023/10/15 11:39:25;;;;;;;2.17;1.50;;;;;;;;;;5040829;28;20511;-78
2023/10/15 11:41:56;;;;;;;2.75;1.60;;;;;;;;;;5034863;28;20049;-79
2023/10/15 11:44:30;;;;;;;2.40;1.63;;;;;;;;;;5058646;28;20053;-79
2023/10/15 11:47:08;;;;;;;3.10;1.30;;;;;;;;;;5041364;28;20495;-79
2023/10/15 11:49:38;;;;;;;2.05;1.40;;;;;;;;;;5055807;28;20050;-79
2023/10/15 11:52:05;;;;;;;1.90;1.20;;;;;;;;;;5036138;28;20045;-78
2023/10/15 11:54:33;;;;;;;1.73;0.80;;;;;;;;;;5058712;28;20045;-79
2023/10/15 11:57:00;;;;;;;1.40;0.52;;;;;;;;;;5041319;28;20095;-78
2023/10/15 11:59:28;;;;;;;0.75;0.75;;;;;;;;;;5039680;28;20106;-78
2023/10/15 12:01:55;;;;;;;1.48;0.73;;;;;;;;;;5034669;28;20052;-78
2023/10/15 12:04:25;;;;;;;3.70;0.80;;;;;;;;;;5040903;28;20055;-79
2023/10/15 12:06:53;;;;;;;2.00;0.98;;;;;;;;;;5040940;28;20061;-78
2023/10/15 12:09:26;;;;;;;1.80;0.90;;;;;;;;;;5058424;28;20056;-79
2023/10/15 12:11:53;;;;;;;;;;;;;;;;;;5059289;28;20495;-79
2023/10/15 12:14:20;;;;;;;1.38;1.08;;;;;;;;;;5058231;28;19920;-79
2023/10/15 12:16:48;;;;;;;3.03;1.33;;;;;;;;;;5058658;28;20392;-79
2023/10/15 12:19:17;;;;;;;4.15;1.83;;;;;;;;;;5041225;28;20136;-79
2023/10/15 12:21:44;;;;;;;4.28;1.98;;;;;;;;;;5040110;28;20415;-79
2023/10/15 12:24:13;;;;;;;2.17;1.27;;;;;;;;;;5037609;28;20071;-79
2023/10/15 12:26:41;;;;;;;1.65;1.00;;;;;;;;;;5055106;28;20052;-79
2023/10/15 12:29:08;;;;;;;1.40;0.90;;;;;;;;;;5055035;28;20048;-80
2023/10/15 12:31:54;;;;;;;6.13;1.05;;;;;;;;;;5055304;28;20041;-79
2023/10/15 12:34:21;;;;;;;2.30;1.13;;;;;;;;;;5037542;28;20060;-79
2023/10/15 12:36:48;;;;;;;2.30;1.15;;;;;;;;;;5037576;28;20076;-79
2023/10/15 12:39:16;;;;;;;2.13;1.08;;;;;;;;;;5037706;28;20053;-80
2023/10/15 12:41:43;;;;;;;1.10;0.85;;;;;;;;;;5054988;28;20049;-80
2023/10/15 12:44:11;;;;;;;1.98;1.33;;;;;;;;;;5055061;28;20053;-79
2023/10/15 12:46:40;;;;;;;1.85;1.20;;;;;;;;;;5054693;28;20049;-79
2023/10/15 12:49:08;;;;;;;1.27;0.60;;;;;;;;;;5037305;28;20120;-80
2023/10/15 12:51:35;;;;;;;2.13;1.00;;;;;;;;;;5037290;28;20076;-79
2023/10/15 12:54:04;;;;;;;1.83;1.10;;;;;;;;;;5054864;28;20106;-78
2023/10/15 12:56:31;;;;;;;0.70;0.70;;;;;;;;;;5036930;28;20511;-78
2023/10/15 12:58:58;;;;;;;0.63;0.63;;;;;;;;;;5055075;28;20553;-78
2023/10/15 13:01:26;;;;;;;1.10;0.50;;;;;;;;;;5054545;28;20598;-79
2023/10/15 13:03:54;;;;;;;0.88;0.50;;;;;;;;;;5054471;28;20132;-79
2023/10/15 13:06:21;;;;;;;1.23;0.80;;;;;;;;;;5054681;28;20056;-79
2023/10/15 13:08:48;;;;;;;0.80;0.50;;;;;;;;;;5036625;28;20403;-79
2023/10/15 13:11:16;;;;;;;0.50;0.50;;;;;;;;;;5036992;28;20077;-79
2023/10/15 13:13:46;;;;;;;1.95;0.55;;;;;;;;;;5036461;28;20508;-78
2023/10/15 13:16:13;;;;;;;0.50;0.50;;;;;;;;;;5036899;28;20124;-79
2023/10/15 13:18:40;;;;;;;1.15;0.60;;;;;;;;;;5054099;28;20049;-78
2023/10/15 13:21:08;;;;;;;2.42;0.80;;;;;;;;;;5036854;28;20487;-79
2023/10/15 13:23:36;;;;;;;1.13;0.50;;;;;;;;;;5054296;28;20053;-80
2023/10/15 13:26:08;;;;;;;1.73;0.50;;;;;;;;;;5036686;28;20538;-79
2023/10/15 13:28:36;;;;;;;2.17;0.50;;;;;;;;;;5036179;28;20122;-78
2023/10/15 13:31:03;;;;;;;1.48;0.35;;;;;;;;;;5054061;28;20094;-79
2023/10/15 13:33:30;;;;;;;0.40;0.30;;;;;;;;;;5035778;28;20041;-79
2023/10/15 13:35:58;;;;;;;0.80;0.30;;;;;;;;;;5036588;28;20045;-78
2023/10/15 13:38:28;;;;;;;0.82;0.50;;;;;;;;;;5036386;28;20116;-79
2023/10/15 13:40:55;;;;;;;0.65;0.45;;;;;;;;;;5036387;28;20098;-78
2023/10/15 13:43:23;;;;;;;2.33;0.40;;;;;;;;;;5053672;28;20570;-79
2023/10/15 13:45:50;;;;;;;0.57;0.50;;;;;;;;;;5036155;28;20076;-78
2023/10/15 13:48:17;;;;;;;1.20;0.68;;;;;;;;;;5036077;28;20075;-79
2023/10/15 13:50:45;;;;;;;1.15;0.50;;;;;;;;;;5036125;28;20053;-78
2023/10/15 13:53:12;;;;;;;2.10;0.60;;;;;;;;;;5053684;28;20051;-78
2023/10/15 13:55:40;;;;;;;1.33;0.57;;;;;;;;;;5053640;28;20561;-77
2023/10/15 13:58:08;;;;;;;3.38;0.70;;;;;;;;;;5036006;28;20500;-79
2023/10/15 14:00:37;;;;;;;3.20;0.30;;;;;;;;;;5045155;28;20064;-80
2023/10/15 14:03:04;;;;;;;1.45;0.43;;;;;;;;;;5035916;28;20094;-79
2023/10/15 14:05:32;;;;;;;1.35;0.55;;;;;;;;;;5035656;28;20048;-80
2023/10/15 14:08:00;;;;;;;3.00;0.47;;;;;;;;;;5053271;28;20045;-78
2023/10/15 14:10:27;;;;;;;0.80;0.52;;;;;;;;;;5053255;28;20049;-79
2023/10/15 14:12:55;;;;;;;2.70;1.20;;;;;;;;;;5035621;28;20499;-80
2023/10/15 14:15:42;;;;;;;1.40;1.02;;;;;;;;;;5038816;28;20075;-79
2023/10/15 14:18:11;;;;;;;0.90;0.70;;;;;;;;;;5035576;28;20526;-79
2023/10/15 14:20:38;;;;;;;2.28;0.77;;;;;;;;;;5053076;28;20053;-80
2023/10/15 14:23:06;;;;;;;1.08;0.60;;;;;;;;;;5053320;28;20049;-79
2023/10/15 14:25:34;;;;;;;0.52;0.50;;;;;;;;;;5052992;28;20499;-79
2023/10/15 14:28:02;;;;;;;1.33;0.57;;;;;;;;;;5035554;28;20231;-79
2023/10/15 14:30:29;;;;;;;0.70;0.70;;;;;;;;;;5035054;28;20503;-79
2023/10/15 14:32:57;;;;;;;1.58;0.57;;;;;;;;;;5053236;28;20136;-79
2023/10/15 14:35:24;;;;;;;0.85;0.85;;;;;;;;;;5052919;28;20128;-79
2023/10/15 14:37:51;;;;;;;0.30;0.30;;;;;;;;;;5035186;28;20045;-79
2023/10/15 14:40:19;;;;;;;1.40;0.90;;;;;;;;;;5052862;28;20139;-78
2023/10/15 14:42:46;;;;;;;7.30;0.93;;;;;;;;;;5052856;28;20084;-79
2023/10/15 14:45:16;;;;;;;2.15;0.40;;;;;;;;;;5034440;28;20488;-79
2023/10/15 14:47:43;;;;;;;1.08;0.43;;;;;;;;;;5035453;28;20052;-79
2023/10/15 14:50:12;;;;;;;0.77;0.57;;;;;;;;;;5045302;28;20244;-78
2023/10/15 14:52:40;;;;;;;0.63;0.35;;;;;;;;;;5052345;28;20051;-79
2023/10/15 14:55:07;;;;;;;1.30;0.30;;;;;;;;;;5035159;28;20049;-79
2023/10/15 14:57:35;;;;;;;0.63;0.40;;;;;;;;;;5035011;28;20400;-79
2023/10/15 15:00:04;;;;;;;0.68;0.60;;;;;;;;;;5052631;28;20045;-78
2023/10/15 15:02:31;;;;;;;0.50;0.50;;;;;;;;;;5034759;28;20131;-79
2023/10/15 15:04:59;;;;;;;0.95;0.40;;;;;;;;;;5052656;28;20080;-80
2023/10/15 15:07:26;;;;;;;2.50;0.50;;;;;;;;;;5052500;28;20080;-80